Time;durP1;ratioP1;P1;durP2;ratioP2;P2;SDS_P1;SDS_P2;PMS_P1;PMS_P2;Temp;Humidity;BMP_temperature;BMP_pressure;BME280_temperature;BME280_humidity;BME280_pressure;Samples;Min_cycle;Max_cycle;Signal;HPM_P1;HPM_P2
2023/11/16 00:00:18;;;;;;;29.52;26.73;;;;;;;3.64;100.00;96326.81;5087447;28;20059;-64
2023/11/16 00:02:44;;;;;;;25.13;22.63;;;;;;;3.68;100.00;96325.75;5083467;28;20028;-63
2023/11/16 00:05:12;;;;;;;25.02;22.42;;;;;;;3.71;100.00;96337.72;5085379;28;20024;-63
2023/11/16 00:07:40;;;;;;;17.27;14.38;;;;;;;3.80;100.00;96349.41;5097555;28;20070;-64
2023/11/16 00:10:08;;;;;;;14.43;11.93;;;;;;;3.82;100.00;96356.25;5084097;28;20043;-63
2023/11/16 00:12:33;;;;;;;14.20;11.07;;;;;;;3.87;100.00;96363.81;5089847;28;20024;-63
2023/11/16 00:14:59;;;;;;;10.88;8.30;;;;;;;3.98;100.00;96378.84;5095063;28;20043;-63
2023/11/16 00:17:24;;;;;;;8.80;5.63;;;;;;;4.01;100.00;96387.31;5088215;28;20041;-63
2023/11/16 00:19:50;;;;;;;6.78;5.72;;;;;;;4.04;100.00;96390.69;5086089;28;20044;-64
2023/11/16 00:22:15;;;;;;;4.95;4.32;;;;;;;4.08;100.00;96389.59;5080101;28;20041;-64
2023/11/16 00:24:40;;;;;;;6.25;3.65;;;;;;;4.06;100.00;96378.41;5080600;28;20500;-64
2023/11/16 00:27:06;;;;;;;5.85;4.05;;;;;;;4.07;100.00;96378.34;5079364;28;20040;-63
2023/11/16 00:29:32;;;;;;;7.80;5.40;;;;;;;4.09;100.00;96384.28;5086368;28;20025;-64
2023/11/16 00:31:58;;;;;;;6.45;5.18;;;;;;;4.12;100.00;96372.88;5086390;28;20031;-64
2023/11/16 00:34:24;;;;;;;9.88;5.60;;;;;;;4.17;100.00;96355.22;5093222;28;20025;-64
2023/11/16 00:36:49;;;;;;;7.15;5.28;;;;;;;4.20;100.00;96355.03;5084876;28;20044;-64
2023/11/16 00:39:14;;;;;;;10.45;6.38;;;;;;;4.24;100.00;96361.75;5076899;28;20485;-64
2023/11/16 00:41:40;;;;;;;9.63;4.35;;;;;;;4.26;100.00;96351.25;5084178;28;20082;-64
2023/11/16 00:44:05;;;;;;;3.85;3.50;;;;;;;4.27;100.00;96342.50;5090234;27;20077;-63
2023/11/16 00:46:35;;;;;;;7.80;3.80;;;;;;;4.34;100.00;96348.22;5079369;28;20203;-63
2023/11/16 00:49:01;;;;;;;10.93;3.70;;;;;;;4.72;100.00;96343.38;5083766;28;20388;-64
2023/11/16 00:51:27;;;;;;;8.27;4.00;;;;;;;4.73;100.00;96325.94;5086470;28;20036;-63
2023/11/16 00:53:52;;;;;;;7.93;4.45;;;;;;;4.56;100.00;96319.97;5086519;28;20632;-64
2023/11/16 00:56:18;;;;;;;6.00;3.70;;;;;;;4.51;100.00;96324.59;5087269;28;20035;-63
2023/11/16 00:58:44;;;;;;;4.57;3.03;;;;;;;4.50;100.00;96320.31;5088524;28;20108;-63
2023/11/16 01:01:09;;;;;;;4.43;3.75;;;;;;;4.48;100.00;96313.53;5081753;28;20024;-63
2023/11/16 01:03:36;;;;;;;11.77;4.53;;;;;;;4.50;100.00;96307.28;5078919;28;20089;-63
2023/11/16 01:06:02;;;;;;;6.90;4.82;;;;;;;4.56;100.00;96319.13;5078252;28;20036;-63
2023/11/16 01:08:33;;;;;;;9.00;4.50;;;;;;;4.54;100.00;96320.97;5079505;28;20038;-63
2023/11/16 01:11:04;;;;;;;6.43;4.28;;;;;;;4.54;100.00;96324.44;5085333;28;20078;-63
2023/11/16 01:13:38;;;;;;;7.75;4.18;;;;;;;4.56;100.00;96319.13;5077821;28;20021;-63
2023/11/16 01:16:17;;;;;;;7.18;5.13;;;;;;;4.57;100.00;96320.78;5083832;28;20062;-64
2023/11/16 01:18:48;;;;;;;9.02;5.70;;;;;;;4.59;100.00;96314.56;5086452;28;20557;-64
2023/11/16 01:21:14;;;;;;;10.80;5.13;;;;;;;4.56;100.00;96312.16;5081943;28;20032;-63
2023/11/16 01:23:39;;;;;;;6.32;4.90;;;;;;;4.52;100.00;96304.59;5078214;28;20027;-63
2023/11/16 01:26:14;;;;;;;5.32;4.18;;;;;;;4.50;100.00;96311.66;5090331;28;20036;-63
2023/11/16 01:28:45;;;;;;;5.55;4.22;;;;;;;4.46;100.00;96310.16;5076365;28;20028;-63
2023/11/16 01:31:12;;;;;;;10.35;5.15;;;;;;;4.48;100.00;96300.47;5080584;28;20020;-64
2023/11/16 01:33:38;;;;;;;7.78;4.10;;;;;;;4.50;100.00;96296.00;5080268;28;20021;-64
2023/11/16 01:36:04;;;;;;;8.35;4.70;;;;;;;4.54;100.00;96292.28;5083015;28;20023;-63
2023/11/16 01:38:30;;;;;;;7.72;4.85;;;;;;;4.55;100.00;96288.75;5080878;28;20440;-63
2023/11/16 01:40:56;;;;;;;8.38;5.28;;;;;;;4.58;100.00;96285.97;5080995;28;20024;-64
2023/11/16 01:43:22;;;;;;;9.65;5.20;;;;;;;4.63;100.00;96281.31;5081269;28;20078;-64
2023/11/16 01:45:48;;;;;;;6.25;5.30;;;;;;;4.66;100.00;96280.28;5079391;28;20036;-64
2023/11/16 01:48:21;;;;;;;5.60;4.97;;;;;;;4.64;100.00;96285.63;5086778;28;20024;-63
2023/11/16 01:50:47;;;;;;;12.43;5.53;;;;;;;4.59;100.00;96278.06;5076567;28;20496;-63
2023/11/16 01:53:13;;;;;;;6.00;4.60;;;;;;;4.62;100.00;96282.22;5079044;28;20028;-63
2023/11/16 01:55:47;;;;;;;9.45;5.45;;;;;;;4.62;100.00;96274.41;5086143;28;20020;-63
2023/11/16 01:58:14;;;;;;;11.27;7.35;;;;;;;4.61;100.00;96274.53;5080181;28;20024;-64
2023/11/16 02:00:42;;;;;;;9.88;7.20;;;;;;;4.61;100.00;96284.94;5084851;28;20097;-64
2023/11/16 02:03:09;;;;;;;8.13;7.20;;;;;;;4.65;100.00;96286.44;5083136;28;20082;-63
2023/11/16 02:05:36;;;;;;;7.78;5.82;;;;;;;4.67;100.00;96287.19;5085837;28;20035;-64
2023/11/16 02:08:10;;;;;;;6.18;5.57;;;;;;;4.68;100.00;96266.25;5079225;28;20036;-63
2023/11/16 02:10:37;;;;;;;6.63;5.50;;;;;;;4.70;100.00;96263.53;5085150;28;20584;-63
2023/11/16 02:13:16;;;;;;;7.78;5.25;;;;;;;4.74;100.00;96262.41;5079012;28;20048;-63
2023/11/16 02:15:43;;;;;;;5.13;4.22;;;;;;;4.75;100.00;96268.47;5077127;28;20059;-64
2023/11/16 02:18:09;;;;;;;9.02;4.82;;;;;;;4.72;100.00;96256.44;5081036;28;20047;-63
2023/11/16 02:20:34;;;;;;;6.75;4.82;;;;;;;4.72;100.00;96256.44;5083921;28;20531;-63
2023/11/16 02:23:03;;;;;;;23.17;15.32;;;;;;;4.72;100.00;96252.09;5087501;28;20095;-63
2023/11/16 02:25:29;;;;;;;18.17;12.10;;;;;;;4.73;100.00;96251.16;5076845;28;20067;-64
2023/11/16 02:27:55;;;;;;;24.73;13.45;;;;;;;4.76;100.00;96241.47;5080693;28;20091;-64
2023/11/16 02:30:20;;;;;;;29.50;20.48;;;;;;;4.74;100.00;96225.88;5082653;28;20047;-63
2023/11/16 02:32:46;;;;;;;21.17;10.77;;;;;;;4.69;100.00;96227.94;5075738;28;20158;-63
2023/11/16 02:35:12;;;;;;;8.55;5.97;;;;;;;4.64;100.00;96230.84;5076796;28;20043;-63
2023/11/16 02:37:37;;;;;;;8.65;5.10;;;;;;;4.58;100.00;96205.13;5084398;28;20126;-63
2023/11/16 02:40:04;;;;;;;6.80;4.20;;;;;;;4.49;100.00;96206.50;5075283;28;20016;-64
2023/11/16 02:42:29;;;;;;;8.52;4.20;;;;;;;4.43;100.00;96202.50;5082306;27;20024;-64
2023/11/16 02:44:57;;;;;;;9.88;3.97;;;;;;;4.41;100.00;96190.50;5076678;28;20030;-63
2023/11/16 02:47:30;;;;;;;9.68;3.80;;;;;;;4.37;100.00;96196.81;5085588;28;20055;-63
2023/11/16 02:49:55;;;;;;;5.30;3.60;;;;;;;4.34;100.00;96189.19;5077728;28;20020;-64
2023/11/16 02:52:22;;;;;;;81.78;34.05;;;;;;;4.30;100.00;96189.34;5077241;28;20054;-64
2023/11/16 02:54:48;;;;;;;101.97;43.30;;;;;;;4.25;100.00;96196.59;5084541;28;20050;-63
2023/11/16 02:57:13;;;;;;;21.70;10.77;;;;;;;4.25;100.00;96193.16;5079279;28;20032;-63
2023/11/16 02:59:39;;;;;;;11.65;6.53;;;;;;;4.26;100.00;96185.25;5077849;28;20025;-64
2023/11/16 03:02:06;;;;;;;56.05;26.00;;;;;;;4.25;100.00;96185.34;5078135;28;20031;-63
2023/11/16 03:04:32;;;;;;;19.23;10.73;;;;;;;4.15;100.00;96196.31;5074867;28;20579;-63
2023/11/16 03:06:57;;;;;;;11.75;5.75;;;;;;;4.16;100.00;96186.72;5076671;28;20043;-63
2023/11/16 03:09:23;;;;;;;7.63;4.80;;;;;;;4.20;100.00;96193.44;5079138;28;20033;-63
2023/11/16 03:11:48;;;;;;;11.77;5.60;;;;;;;4.21;100.00;96184.69;5079271;28;20052;-63
2023/11/16 03:14:14;;;;;;;12.95;7.90;;;;;;;4.25;100.00;96187.97;5080563;28;20036;-63
2023/11/16 03:16:47;;;;;;;15.90;9.23;;;;;;;4.27;100.00;96186.91;5078993;28;20052;-63
2023/11/16 03:19:13;;;;;;;12.25;8.02;;;;;;;4.27;100.00;96194.75;5083885;28;20033;-63
2023/11/16 03:21:38;;;;;;;14.05;8.32;;;;;;;4.25;100.00;96191.38;5087971;28;20503;-64
2023/11/16 03:24:04;;;;;;;14.23;8.90;;;;;;;4.23;100.00;96190.66;5083473;28;20035;-63
2023/11/16 03:26:29;;;;;;;9.75;8.38;;;;;;;4.20;100.00;96180.41;5079092;28;20059;-63
2023/11/16 03:28:58;;;;;;;12.95;5.45;;;;;;;4.19;100.00;96170.91;5082812;28;20024;-64
2023/11/16 03:31:24;;;;;;;5.88;4.47;;;;;;;4.16;100.00;96177.13;5082601;28;20052;-63
2023/11/16 03:33:49;;;;;;;5.15;4.10;;;;;;;4.16;100.00;96171.09;5077933;28;20060;-64
2023/11/16 03:36:14;;;;;;;9.90;6.88;;;;;;;4.15;100.00;96177.22;5080495;28;20040;-64
2023/11/16 03:38:40;;;;;;;9.43;6.60;;;;;;;4.08;100.00;96168.06;5089165;28;20032;-63
2023/11/16 03:41:06;;;;;;;9.27;4.25;;;;;;;4.13;100.00;96171.28;5078024;28;20056;-63
2023/11/16 03:43:32;;;;;;;10.70;3.67;;;;;;;4.07;100.00;96162.03;5079884;28;20493;-64
2023/11/16 03:45:57;;;;;;;8.55;3.20;;;;;;;4.00;100.00;96158.97;5079462;28;20021;-64
2023/11/16 03:48:23;;;;;;;5.82;3.60;;;;;;;3.97;100.00;96153.06;5084168;28;20032;-63
2023/11/16 03:50:48;;;;;;;6.07;3.78;;;;;;;3.93;100.00;96149.84;5085383;28;20085;-63
2023/11/16 03:53:14;;;;;;;5.97;4.22;;;;;;;3.93;100.00;96142.00;5085909;28;20033;-63
2023/11/16 03:55:39;;;;;;;8.20;4.50;;;;;;;3.97;100.00;96138.28;5080655;28;20023;-64
2023/11/16 03:58:04;;;;;;;7.38;4.43;;;;;;;3.97;100.00;96135.69;5077619;28;20032;-64
2023/11/16 04:00:31;;;;;;;8.05;4.72;;;;;;;3.90;100.00;96137.00;5087071;28;20015;-63
2023/11/16 04:02:58;;;;;;;7.68;4.80;;;;;;;3.91;100.00;96135.22;5084255;28;20495;-64
2023/11/16 04:05:26;;;;;;;7.35;5.00;;;;;;;3.87;100.00;96130.19;5083337;28;20032;-64
2023/11/16 04:07:54;;;;;;;6.55;5.03;;;;;;;3.90;100.00;96133.53;5084864;28;20036;-63
2023/11/16 04:10:20;;;;;;;7.50;4.70;;;;;;;3.85;100.00;96136.41;5082809;28;20100;-63
2023/11/16 04:12:45;;;;;;;6.85;4.47;;;;;;;3.82;100.00;96139.19;5087180;28;20788;-64
2023/11/16 04:15:13;;;;;;;7.20;4.60;;;;;;;3.85;100.00;96147.66;5080779;28;20052;-64
2023/11/16 04:17:44;;;;;;;6.10;4.85;;;;;;;3.83;100.00;96131.28;5088320;28;20569;-63
2023/11/16 04:20:12;;;;;;;7.38;4.68;;;;;;;3.82;100.00;96129.63;5084552;28;20055;-63
2023/11/16 04:22:39;;;;;;;5.22;4.57;;;;;;;3.78;100.00;96130.72;5083840;28;20055;-63
2023/11/16 04:25:07;;;;;;;6.82;4.60;;;;;;;3.78;100.00;96163.75;5083197;28;20024;-64
2023/11/16 04:27:33;;;;;;;7.30;4.72;;;;;;;3.72;100.00;96178.78;5079892;28;20032;-64
2023/11/16 04:29:59;;;;;;;6.38;4.35;;;;;;;3.69;100.00;96170.31;5090307;28;20028;-64
2023/11/16 04:32:26;;;;;;;11.32;7.50;;;;;;;3.69;100.00;96165.09;5096982;28;20032;-63
2023/11/16 04:34:52;;;;;;;7.65;6.78;;;;;;;3.68;100.00;96177.31;5091804;28;20037;-64
2023/11/16 04:37:19;;;;;;;6.90;6.18;;;;;;;3.68;100.00;96181.66;5089207;28;20031;-63
2023/11/16 04:39:44;;;;;;;7.22;5.72;;;;;;;3.70;100.00;96164.16;5080274;28;20077;-63
2023/11/16 04:42:09;;;;;;;6.65;5.38;;;;;;;3.64;100.00;96154.13;5077063;28;20024;-63
2023/11/16 04:44:35;;;;;;;7.97;4.72;;;;;;;3.53;100.00;96146.91;5092371;28;20032;-63
2023/11/16 04:47:01;;;;;;;9.60;6.38;;;;;;;3.55;100.00;96139.84;5084380;28;20033;-63
2023/11/16 04:49:26;;;;;;;11.65;6.95;;;;;;;3.59;100.00;96133.53;5078924;28;20087;-64
2023/11/16 04:51:53;;;;;;;11.45;7.20;;;;;;;3.65;100.00;96135.81;5085451;28;20048;-64
2023/11/16 04:54:19;;;;;;;10.13;6.32;;;;;;;3.68;100.00;96133.03;5079365;28;20055;-63
2023/11/16 04:56:44;;;;;;;9.55;3.75;;;;;;;3.65;100.00;96125.41;5093962;28;20024;-63
2023/11/16 04:59:09;;;;;;;3.13;2.83;;;;;;;3.62;100.00;96135.97;5086636;28;20385;-64
2023/11/16 05:01:35;;;;;;;8.07;5.65;;;;;;;3.64;100.00;96121.09;5083908;28;20093;-63
2023/11/16 05:04:01;;;;;;;6.68;5.35;;;;;;;3.64;100.00;96108.06;5077221;28;20032;-63
2023/11/16 05:06:27;;;;;;;12.68;8.77;;;;;;;3.68;100.00;96112.19;5094064;28;20077;-63
2023/11/16 05:08:52;;;;;;;7.70;5.82;;;;;;;3.75;100.00;96109.22;5059795;28;20029;-63
2023/11/16 05:11:22;;;;;;;6.97;4.95;;;;;;;3.82;100.00;96116.59;5087901;28;20040;-63
2023/11/16 05:13:48;;;;;;;7.00;4.18;;;;;;;3.86;100.00;96117.22;5090312;28;20571;-64
2023/11/16 05:16:13;;;;;;;7.55;5.47;;;;;;;3.88;100.00;96120.63;5082768;28;20028;-63
2023/11/16 05:18:40;;;;;;;6.68;4.47;;;;;;;3.90;100.00;96118.75;5085680;28;20039;-64
2023/11/16 05:21:08;;;;;;;7.65;4.03;;;;;;;3.94;100.00;96116.78;5082533;28;20073;-63
2023/11/16 05:23:34;;;;;;;5.50;3.45;;;;;;;4.02;100.00;96106.78;5074820;28;20035;-64
2023/11/16 05:26:00;;;;;;;7.70;3.63;;;;;;;4.04;100.00;96096.22;5088071;28;20067;-64
2023/11/16 05:28:26;;;;;;;8.05;5.05;;;;;;;4.07;100.00;96102.13;5085475;28;20028;-63
2023/11/16 05:30:51;;;;;;;10.18;4.65;;;;;;;4.09;100.00;96082.00;5090101;28;20020;-63
2023/11/16 05:33:19;;;;;;;7.95;4.45;;;;;;;4.10;100.00;96069.84;5077743;28;20032;-64
2023/11/16 05:35:45;;;;;;;4.93;4.35;;;;;;;4.15;100.00;96050.34;5082972;28;20024;-64
2023/11/16 05:38:10;;;;;;;7.57;4.63;;;;;;;4.18;100.00;96048.50;5086552;28;20107;-64
2023/11/16 05:40:35;;;;;;;4.30;3.90;;;;;;;4.16;100.00;96052.03;5095540;28;20062;-64
2023/11/16 05:43:03;;;;;;;5.05;3.80;;;;;;;4.18;100.00;96059.78;5088938;28;20020;-64
2023/11/16 05:45:29;;;;;;;5.43;4.28;;;;;;;4.16;100.00;96062.47;5087337;28;20024;-64
2023/11/16 05:47:56;;;;;;;5.28;4.57;;;;;;;4.21;100.00;96058.75;5090363;28;20413;-63
2023/11/16 05:50:24;;;;;;;7.13;4.28;;;;;;;4.24;100.00;96056.78;5083065;28;20155;-64
2023/11/16 05:52:50;;;;;;;8.85;6.38;;;;;;;4.20;100.00;96052.69;5084041;28;20107;-63
2023/11/16 05:55:17;;;;;;;9.38;6.20;;;;;;;4.21;100.00;96053.53;5075697;28;20111;-64
2023/11/16 05:57:44;;;;;;;4.85;3.45;;;;;;;4.26;100.00;96051.50;5084916;28;20031;-63
2023/11/16 06:00:11;;;;;;;5.43;3.05;;;;;;;4.28;100.00;96053.03;5083166;28;20500;-64
2023/11/16 06:02:38;;;;;;;3.88;3.28;;;;;;;4.30;100.00;96043.38;5075804;28;20020;-63
2023/11/16 06:05:05;;;;;;;3.10;2.90;;;;;;;4.31;100.00;96054.63;5078741;28;20024;-63
2023/11/16 06:07:31;;;;;;;8.50;3.40;;;;;;;4.33;100.00;96051.94;5080272;28;20062;-64
2023/11/16 06:09:57;;;;;;;6.10;3.50;;;;;;;4.36;100.00;96054.38;5095190;28;20031;-64
2023/11/16 06:12:23;;;;;;;7.75;3.08;;;;;;;4.41;100.00;96049.69;5081341;28;20043;-64
2023/11/16 06:14:55;;;;;;;7.90;3.65;;;;;;;4.40;100.00;96035.81;5084093;28;20554;-64
2023/11/16 06:17:21;;;;;;;5.72;3.30;;;;;;;4.44;100.00;96031.25;5093516;28;20036;-63
2023/11/16 06:19:46;;;;;;;4.53;2.97;;;;;;;4.46;100.00;96029.38;5088806;28;20045;-64
2023/11/16 06:22:12;;;;;;;6.00;3.88;;;;;;;4.40;100.00;96024.56;5087534;28;20032;-64
2023/11/16 06:24:37;;;;;;;8.88;3.90;;;;;;;4.38;100.00;96027.25;5073180;28;20032;-64
2023/11/16 06:27:04;;;;;;;8.48;4.20;;;;;;;4.43;100.00;96037.41;5084967;28;20123;-64
2023/11/16 06:29:30;;;;;;;10.80;3.72;;;;;;;4.42;100.00;96027.91;5091786;28;20076;-63
2023/11/16 06:31:56;;;;;;;4.80;3.25;;;;;;;4.43;100.00;96033.03;5096013;28;20031;-64
2023/11/16 06:34:22;;;;;;;4.45;3.28;;;;;;;4.42;100.00;96035.72;5080180;28;20044;-64
2023/11/16 06:36:48;;;;;;;4.25;3.50;;;;;;;4.40;100.00;96033.19;5081330;28;20785;-63
2023/11/16 06:39:13;;;;;;;5.35;4.32;;;;;;;4.36;100.00;96036.13;5084322;28;20035;-63
2023/11/16 06:41:39;;;;;;;11.30;6.32;;;;;;;4.39;100.00;96034.13;5081868;28;20028;-64
2023/11/16 06:44:07;;;;;;;10.77;4.15;;;;;;;4.43;100.00;96042.63;5095481;28;20031;-63
2023/11/16 06:46:34;;;;;;;11.73;6.28;;;;;;;4.45;100.00;96040.75;5074866;28;20032;-63
2023/11/16 06:49:02;;;;;;;8.23;6.53;;;;;;;4.49;100.00;96041.41;5074587;28;20572;-62
2023/11/16 06:51:28;;;;;;;8.25;6.28;;;;;;;4.51;100.00;96047.34;5082131;28;20038;-61
2023/11/16 06:53:53;;;;;;;7.30;5.07;;;;;;;4.51;100.00;96044.75;5080556;28;20029;-62
2023/11/16 06:56:19;;;;;;;8.95;6.15;;;;;;;4.52;100.00;96034.22;5078894;28;20036;-63
2023/11/16 06:58:44;;;;;;;8.40;7.18;;;;;;;4.55;100.00;96039.25;5085158;28;20038;-62
2023/11/16 07:01:10;;;;;;;6.47;5.70;;;;;;;4.61;100.00;96035.41;5081382;28;20020;-64
2023/11/16 07:03:35;;;;;;;7.28;5.75;;;;;;;4.62;100.00;96036.25;5084587;28;20059;-63
2023/11/16 07:06:00;;;;;;;8.10;5.22;;;;;;;4.61;100.00;96031.97;5074304;28;20025;-63
2023/11/16 07:08:26;;;;;;;9.63;7.32;;;;;;;4.61;100.00;96040.63;5072554;28;20036;-63
2023/11/16 07:10:51;;;;;;;8.27;5.80;;;;;;;4.63;100.00;96053.56;5077395;28;20047;-63
2023/11/16 07:13:19;;;;;;;6.03;5.45;;;;;;;4.66;100.00;96041.19;5076545;28;20048;-63
2023/11/16 07:15:46;;;;;;;10.60;6.55;;;;;;;4.73;100.00;96050.28;5075617;28;20069;-64
2023/11/16 07:18:11;;;;;;;11.05;6.35;;;;;;;4.80;100.00;96053.34;5081608;28;20046;-63
2023/11/16 07:20:37;;;;;;;13.25;10.25;;;;;;;5.04;100.00;96064.91;5076505;28;20484;-63
2023/11/16 07:23:03;;;;;;;21.55;13.18;;;;;;;5.13;100.00;96059.94;5079827;28;20055;-63
2023/11/16 07:25:28;;;;;;;21.67;12.55;;;;;;;4.97;100.00;96040.97;5080039;28;20107;-63
2023/11/16 07:27:54;;;;;;;19.77;11.05;;;;;;;4.90;100.00;96043.16;5084600;28;20033;-63
2023/11/16 07:30:20;;;;;;;16.55;11.15;;;;;;;4.90;100.00;96048.38;5074569;28;20536;-63
2023/11/16 07:32:49;;;;;;;19.77;13.18;;;;;;;4.94;100.00;96054.22;5075442;28;20024;-63
2023/11/16 07:35:17;;;;;;;55.85;34.88;;;;;;;4.94;100.00;96080.31;5087040;28;20028;-63
2023/11/16 07:37:47;;;;;;;37.35;27.17;;;;;;;4.97;100.00;96095.78;5089205;28;20016;-63
2023/11/16 07:40:17;;;;;;;30.38;16.95;;;;;;;5.00;100.00;96116.50;5086760;28;20046;-63
2023/11/16 07:42:44;;;;;;;18.95;12.25;;;;;;;5.02;100.00;96146.75;5083799;28;20023;-63
2023/11/16 07:45:11;;;;;;;22.30;17.02;;;;;;;5.07;100.00;96148.22;5077815;28;20032;-63
2023/11/16 07:47:38;;;;;;;11.15;6.85;;;;;;;5.06;100.00;96152.63;5084205;28;20077;-63
2023/11/16 07:50:10;;;;;;;13.75;7.57;;;;;;;5.06;100.00;96157.84;5077900;28;20025;-63
2023/11/16 07:52:45;;;;;;;9.27;5.45;;;;;;;5.02;100.00;96153.75;5081836;28;20032;-63
2023/11/16 07:55:16;;;;;;;8.33;5.50;;;;;;;5.03;100.00;96171.09;5084965;28;20036;-63
2023/11/16 07:57:47;;;;;;;6.30;4.80;;;;;;;5.05;100.00;96176.19;5087421;28;20621;-63
2023/11/16 08:00:22;;;;;;;16.02;8.68;;;;;;;5.09;100.00;96172.50;5098136;28;20077;-63
2023/11/16 08:05:36;;;;;;;8.18;4.85;;;;;;;5.08;100.00;96178.63;5078018;28;20071;-63
2023/11/16 08:08:03;;;;;;;10.18;6.15;;;;;;;5.18;100.00;96187.56;5090864;28;20114;-64
2023/11/16 08:10:29;;;;;;;10.30;4.90;;;;;;;5.23;100.00;96193.31;5078248;28;20108;-63
2023/11/16 08:12:54;;;;;;;5.80;5.20;;;;;;;5.30;100.00;96183.34;5090873;28;20628;-63
2023/11/16 08:15:25;;;;;;;6.57;5.35;;;;;;;5.31;100.00;96179.78;5077904;28;20039;-63
2023/11/16 08:17:54;;;;;;;5.65;4.50;;;;;;;5.33;100.00;96156.22;5092140;28;20165;-63
2023/11/16 08:20:23;;;;;;;7.35;5.18;;;;;;;5.30;100.00;96149.41;5096353;28;20032;-64
2023/11/16 08:22:51;;;;;;;6.15;4.50;;;;;;;5.35;100.00;96136.06;5081855;28;20040;-63
2023/11/16 08:25:24;;;;;;;7.30;4.53;;;;;;;5.38;100.00;96121.00;5077123;28;20020;-63
2023/11/16 08:27:51;;;;;;;10.10;7.72;;;;;;;5.44;100.00;96117.16;5095154;28;20022;-63
2023/11/16 08:30:17;;;;;;;8.43;7.38;;;;;;;5.42;100.00;96109.44;5087384;28;20041;-63
2023/11/16 08:32:43;;;;;;;11.23;8.35;;;;;;;5.46;100.00;96102.22;5088239;28;20039;-63
2023/11/16 08:35:10;;;;;;;9.77;8.77;;;;;;;5.52;100.00;96094.00;5078152;28;20032;-64
2023/11/16 08:37:37;;;;;;;10.25;9.30;;;;;;;5.56;100.00;96090.25;5090488;28;20032;-63
2023/11/16 08:40:03;;;;;;;10.40;9.40;;;;;;;5.55;100.00;96080.75;5075670;28;20039;-64
2023/11/16 08:42:35;;;;;;;10.20;9.30;;;;;;;5.56;100.00;96077.22;5077217;28;20476;-63
2023/11/16 08:45:02;;;;;;;13.43;9.27;;;;;;;5.84;100.00;96067.50;5076073;28;20078;-63
2023/11/16 08:47:27;;;;;;;16.42;11.88;;;;;;;5.82;100.00;96066.78;5089622;28;20392;-63
2023/11/16 08:49:53;;;;;;;23.23;16.42;;;;;;;5.69;100.00;96060.69;5084764;28;20055;-63
2023/11/16 08:52:21;;;;;;;16.95;15.20;;;;;;;5.78;100.00;96052.25;5083271;28;20047;-63
2023/11/16 08:54:47;;;;;;;14.55;13.05;;;;;;;5.78;100.00;96056.63;5084764;28;20027;-63
2023/11/16 08:57:13;;;;;;;12.05;9.85;;;;;;;5.72;100.00;96050.88;5080978;28;20092;-64
2023/11/16 08:59:58;;;;;;;14.30;12.77;;;;;;;5.72;100.00;96063.94;5094805;28;20027;-64
2023/11/16 09:02:24;;;;;;;15.20;9.90;;;;;;;5.70;100.00;96065.84;5090692;28;20569;-64
2023/11/16 09:04:50;;;;;;;13.30;8.82;;;;;;;5.72;100.00;96063.94;5076691;28;20129;-64
2023/11/16 09:07:16;;;;;;;9.85;7.35;;;;;;;5.73;100.00;96065.63;5084988;28;20248;-63
2023/11/16 09:09:45;;;;;;;13.13;8.90;;;;;;;5.81;100.00;96064.25;5093515;28;20475;-63
2023/11/16 09:12:12;;;;;;;10.38;8.80;;;;;;;5.78;100.00;96048.78;5078012;28;20051;-63
2023/11/16 09:14:40;;;;;;;12.32;9.50;;;;;;;5.78;100.00;96069.69;5076351;28;20020;-63
2023/11/16 09:17:16;;;;;;;13.27;10.50;;;;;;;5.77;100.00;96062.81;5087441;28;20031;-63
2023/11/16 09:19:42;;;;;;;14.57;9.50;;;;;;;5.78;100.00;96067.09;5092665;28;20041;-63
2023/11/16 09:22:09;;;;;;;10.90;8.48;;;;;;;5.80;100.00;96060.81;5097990;28;20020;-64
2023/11/16 09:24:38;;;;;;;14.10;8.02;;;;;;;5.83;100.00;96037.09;5094150;28;20052;-63
2023/11/16 09:27:04;;;;;;;12.48;7.35;;;;;;;5.89;100.00;96054.16;5085311;28;20032;-63
2023/11/16 09:29:30;;;;;;;11.93;7.70;;;;;;;5.95;100.00;96058.94;5092961;28;20020;-63
2023/11/16 09:31:56;;;;;;;10.70;5.80;;;;;;;6.02;100.00;96051.56;5080949;28;20028;-63
2023/11/16 09:34:21;;;;;;;8.00;4.68;;;;;;;6.17;100.00;96036.59;5091788;28;20032;-64
2023/11/16 09:36:49;;;;;;;6.35;4.80;;;;;;;6.25;100.00;96030.84;5091967;28;20129;-63
2023/11/16 09:39:15;;;;;;;9.15;4.07;;;;;;;6.37;100.00;96034.38;5082436;28;20107;-63
2023/11/16 09:41:49;;;;;;;7.75;3.90;;;;;;;6.47;100.00;96042.41;5088758;28;20017;-64
2023/11/16 09:44:17;;;;;;;9.35;3.92;;;;;;;6.54;100.00;96047.13;5089539;28;20477;-64
2023/11/16 09:46:47;;;;;;;20.20;8.63;;;;;;;6.55;100.00;96045.31;5076257;28;20127;-63
2023/11/16 09:49:16;;;;;;;8.98;7.55;;;;;;;6.49;100.00;96049.19;5074635;28;20071;-64
2023/11/16 09:51:43;;;;;;;7.95;6.90;;;;;;;6.34;100.00;96045.06;5076199;28;20025;-63
2023/11/16 09:54:10;;;;;;;8.80;5.60;;;;;;;6.26;100.00;96056.88;5079813;28;20024;-63
2023/11/16 09:56:40;;;;;;;10.07;6.43;;;;;;;6.26;100.00;96056.88;5095102;28;20032;-63
2023/11/16 09:59:13;;;;;;;7.63;5.30;;;;;;;6.15;100.00;96055.00;5074593;28;20066;-63
2023/11/16 10:01:46;;;;;;;8.73;6.65;;;;;;;6.11;100.00;96063.16;5078813;28;20095;-64
2023/11/16 10:04:14;;;;;;;7.15;5.40;;;;;;;6.32;100.00;96071.31;5095957;28;20024;-63
2023/11/16 10:06:46;;;;;;;6.97;4.10;;;;;;;6.35;100.00;96083.34;5078273;28;20028;-63
2023/11/16 10:09:14;;;;;;;6.40;5.80;;;;;;;6.25;100.00;96078.72;5075502;28;20025;-63
2023/11/16 10:11:43;;;;;;;8.13;6.32;;;;;;;6.15;100.00;96075.09;5080458;28;20047;-63
2023/11/16 10:14:08;;;;;;;7.05;5.57;;;;;;;6.04;100.00;96061.91;5082733;28;20021;-63
2023/11/16 10:16:34;;;;;;;6.40;4.97;;;;;;;6.19;100.00;96054.78;5081863;28;20437;-63
2023/11/16 10:19:00;;;;;;;6.05;5.45;;;;;;;6.09;100.00;96054.59;5082517;28;20146;-63
2023/11/16 10:21:25;;;;;;;7.13;5.55;;;;;;;6.09;100.00;96049.38;5078838;28;20066;-63
2023/11/16 10:23:51;;;;;;;10.82;9.00;;;;;;;6.13;100.00;96040.38;5075155;28;20024;-63
2023/11/16 10:26:19;;;;;;;11.10;7.10;;;;;;;5.97;100.00;96030.94;5090590;28;20832;-63
2023/11/16 10:28:53;;;;;;;9.43;6.82;;;;;;;5.97;100.00;96025.69;5084804;28;20123;-63
2023/11/16 10:31:21;;;;;;;11.75;9.07;;;;;;;6.00;100.00;96024.66;5084708;28;20120;-64
2023/11/16 10:33:47;;;;;;;7.97;5.53;;;;;;;6.01;100.00;96016.72;5091701;28;20477;-63
2023/11/16 10:36:14;;;;;;;6.15;4.70;;;;;;;6.01;100.00;96005.47;5077620;28;20066;-64
2023/11/16 10:38:41;;;;;;;8.45;5.72;;;;;;;6.05;100.00;96008.69;5084279;28;20439;-63
2023/11/16 10:41:08;;;;;;;9.77;4.88;;;;;;;6.09;100.00;96010.97;5074727;28;20091;-63
2023/11/16 10:43:35;;;;;;;7.85;5.88;;;;;;;6.13;100.00;96011.63;5075249;28;20404;-63
2023/11/16 10:46:00;;;;;;;7.03;4.72;;;;;;;6.23;100.00;96006.59;5075124;28;20110;-63
2023/11/16 10:48:26;;;;;;;10.43;6.13;;;;;;;6.29;100.00;95993.88;5074729;28;20032;-64
2023/11/16 10:50:55;;;;;;;7.57;6.32;;;;;;;6.28;100.00;95997.44;5074388;28;20025;-63
2023/11/16 10:53:23;;;;;;;10.07;8.52;;;;;;;6.22;100.00;95997.06;5074679;28;20554;-63
2023/11/16 10:55:55;;;;;;;6.75;5.90;;;;;;;6.13;100.00;95982.84;5092045;28;20016;-63
2023/11/16 10:58:25;;;;;;;9.90;6.05;;;;;;;6.10;100.00;95965.59;5092920;28;20020;-63
2023/11/16 11:00:52;;;;;;;6.35;5.25;;;;;;;5.97;100.00;95968.19;5076214;28;20024;-63
2023/11/16 11:03:19;;;;;;;6.82;5.32;;;;;;;6.05;100.00;95964.25;5074823;28;20025;-63
2023/11/16 11:05:48;;;;;;;10.77;6.20;;;;;;;6.01;100.00;95954.00;5075085;28;20016;-63
2023/11/16 11:08:17;;;;;;;11.02;7.47;;;;;;;6.01;100.00;95948.78;5075832;28;20113;-63
2023/11/16 11:10:46;;;;;;;7.15;5.47;;;;;;;6.12;100.00;95955.88;5085271;28;20047;-63
2023/11/16 11:13:14;;;;;;;6.28;4.47;;;;;;;6.06;100.00;95951.06;5080874;28;20019;-63
2023/11/16 11:15:40;;;;;;;6.38;5.30;;;;;;;6.01;100.00;95953.19;5092337;28;20036;-63
2023/11/16 11:18:05;;;;;;;14.52;6.15;;;;;;;5.94;100.00;95952.75;5092663;28;20031;-63
2023/11/16 11:20:36;;;;;;;10.93;8.05;;;;;;;6.02;100.00;95952.25;5094996;28;20017;-63
2023/11/16 11:23:18;;;;;;;15.73;9.80;;;;;;;5.97;100.00;95955.13;5075250;28;20017;-63
2023/11/16 11:25:45;;;;;;;11.90;9.68;;;;;;;6.02;100.00;95933.94;5074670;28;20020;-63
2023/11/16 11:28:11;;;;;;;7.95;7.15;;;;;;;6.09;100.00;95934.34;5080932;28;20020;-63
2023/11/16 11:30:59;;;;;;;8.93;6.93;;;;;;;6.13;100.00;95925.34;5090684;28;20016;-63